Sanford, Florida
Current Conditions -  °F | °C
As of 3:53 AM on Thursday 23 Oct 2014 (Local Time) from KSFB Reporting Station
Clear Clear  
Wind Chill: 18°   Ceiling: Unl
Heat Index: 18°   Visibility: 10mi
Dew Point: 13°   Wind: 6mph
Humidity: 73%   Direction: 10°N
Pressure: 29.98"   Gusts: NA
Location:  28.81°N, 81.27°W
Report Text: KSFB 230753Z AUTO 01005KT 10SM CLR 18/13 A2998 RMK AO2 SLP149 T01830133 TSNO
Loading
Personal Weather Stations






























Interactive Weather Map
Tropical Storm Tracking
New forecast layout! Learn more

10-Day Weather Forecast

Advertisements
Track Severe Weather on mobile